createdAt,value
2022-08-05T00:08:00.863Z,12.04
2022-08-05T00:20:02.481Z,12.04
2022-08-05T00:32:13.086Z,12.02
2022-08-05T00:43:53.493Z,12.00
2022-08-05T00:55:53.884Z,11.99
2022-08-05T01:08:42.201Z,11.98
2022-08-05T01:20:01.638Z,11.96
2022-08-05T01:31:54.547Z,11.95
2022-08-05T01:43:53.869Z,11.94
2022-08-05T01:55:53.461Z,11.93
2022-08-05T02:08:00.166Z,11.91
2022-08-05T02:19:53.445Z,11.90
2022-08-05T02:31:53.431Z,11.88
2022-08-05T02:44:02.786Z,11.87
2022-08-05T02:55:59.627Z,11.86
2022-08-05T03:08:06.672Z,11.84
2022-08-05T03:19:53.875Z,11.84
2022-08-05T03:31:57.231Z,11.82
2022-08-05T03:44:08.598Z,11.81
2022-08-05T03:56:10.260Z,11.80
2022-08-05T04:07:57.961Z,11.78
2022-08-05T04:19:54.548Z,11.77
2022-08-05T04:31:53.450Z,11.76
2022-08-05T04:43:53.464Z,11.74
2022-08-05T04:56:15.321Z,11.74
2022-08-05T05:07:56.473Z,11.72
2022-08-05T05:19:53.529Z,11.72
2022-08-05T05:31:53.437Z,11.70
2022-08-05T05:43:58.300Z,11.69
2022-08-05T05:56:00.820Z,11.69
2022-08-05T06:08:01.167Z,11.68
2022-08-05T06:19:57.174Z,11.68
2022-08-05T06:31:53.415Z,11.67
2022-08-05T06:44:00.299Z,11.66
2022-08-05T06:55:53.463Z,11.66
2022-08-05T07:07:53.416Z,11.65
2022-08-05T07:31:54.701Z,11.65
2022-08-05T07:43:56.122Z,11.65
2022-08-05T07:56:05.477Z,11.64
2022-08-05T08:08:00.146Z,11.65
2022-08-05T08:20:22.816Z,11.64
2022-08-05T08:31:53.467Z,11.63
2022-08-05T08:45:22.445Z,11.64
2022-08-05T08:56:05.231Z,11.76
2022-08-05T09:07:57.964Z,11.79
2022-08-05T09:20:01.963Z,11.81
2022-08-05T09:32:41.742Z,11.86
2022-08-05T09:43:53.463Z,11.96
2022-08-05T09:55:57.457Z,12.11
2022-08-05T10:08:35.353Z,12.03
2022-08-05T10:20:04.564Z,12.01
2022-08-05T10:32:53.121Z,12.12
2022-08-05T10:43:53.419Z,12.15
2022-08-05T10:56:03.499Z,12.21
2022-08-05T11:08:02.893Z,12.41
2022-08-05T11:20:10.612Z,12.39
2022-08-05T11:31:57.147Z,12.45
2022-08-05T11:44:07.283Z,12.55
2022-08-05T11:55:53.467Z,12.50
2022-08-05T12:08:09.100Z,12.53
2022-08-05T12:20:27.555Z,12.52
2022-08-05T12:31:54.309Z,12.59
2022-08-05T12:43:53.868Z,12.58
2022-08-05T12:55:53.636Z,12.57
2022-08-05T13:07:59.371Z,12.62
2022-08-05T13:19:54.006Z,12.64
2022-08-05T13:32:03.912Z,12.62
2022-08-05T13:43:54.699Z,12.65
2022-08-05T13:56:00.170Z,12.66
2022-08-05T14:08:01.174Z,12.65
2022-08-05T14:19:55.340Z,12.65
2022-08-05T14:32:02.333Z,12.65
2022-08-05T14:44:00.211Z,12.65
2022-08-05T14:55:53.484Z,12.65
2022-08-05T15:08:11.342Z,12.65
2022-08-05T15:19:55.171Z,12.65
2022-08-05T15:31:53.523Z,12.65
2022-08-05T15:43:54.920Z,12.65
2022-08-05T15:56:02.436Z,12.65
2022-08-05T16:07:53.548Z,12.62
2022-08-05T16:20:05.159Z,12.61
2022-08-05T16:31:56.287Z,12.64
2022-08-05T16:43:56.133Z,12.63
2022-08-05T16:55:53.436Z,12.60
2022-08-05T17:07:54.584Z,12.59
2022-08-05T17:19:55.401Z,12.59
2022-08-05T17:31:58.177Z,12.57
2022-08-05T17:43:54.347Z,12.57
2022-08-05T17:55:53.469Z,12.56
2022-08-05T18:07:53.455Z,12.55
2022-08-05T18:19:54.016Z,12.53
2022-08-05T18:31:53.460Z,12.50
2022-08-05T18:43:53.453Z,12.48
2022-08-05T18:55:53.448Z,12.48
2022-08-05T19:07:53.459Z,12.46
2022-08-05T19:19:53.473Z,12.44
2022-08-05T19:31:53.464Z,12.41
2022-08-05T19:44:05.423Z,12.40
2022-08-05T19:56:15.640Z,12.38
2022-08-05T20:07:58.974Z,12.37
2022-08-05T20:19:56.990Z,12.35
2022-08-05T20:31:57.593Z,12.33
2022-08-05T20:43:59.099Z,12.32
2022-08-05T20:55:56.364Z,12.30
2022-08-05T21:07:53.458Z,12.29
2022-08-05T21:19:53.640Z,12.28
2022-08-05T21:31:53.438Z,12.26
2022-08-05T21:44:03.790Z,12.24
2022-08-05T21:56:04.371Z,12.24
2022-08-05T22:07:58.923Z,12.22
2022-08-05T22:19:57.176Z,12.21
2022-08-05T22:31:59.126Z,12.19
2022-08-05T22:43:53.461Z,12.18
2022-08-05T22:55:56.971Z,12.16
2022-08-05T23:07:53.426Z,12.15
2022-08-05T23:19:56.216Z,12.12
2022-08-05T23:31:53.435Z,12.12
2022-08-05T23:44:04.688Z,12.11
2022-08-05T23:55:53.638Z,12.10
